sensor_id;sensor_type;location;lat;lon;timestamp;temperature;humidity
55173;DHT22;41061;52.822;6.860;2023-03-05T07:59:55;4.00;99.90
55173;DHT22;41061;52.822;6.860;2023-03-05T08:02:21;4.00;99.90
55173;DHT22;41061;52.822;6.860;2023-03-05T08:04:47;4.00;99.90
55173;DHT22;41061;52.822;6.860;2023-03-05T08:07:14;4.10;99.90
55173;DHT22;41061;52.822;6.860;2023-03-05T08:09:40;4.30;99.90
55173;DHT22;41061;52.822;6.860;2023-03-05T08:12:07;4.20;99.90
55173;DHT22;41061;52.822;6.860;2023-03-05T08:14:35;4.20;99.90
55173;DHT22;41061;52.822;6.860;2023-03-05T08:17:01;4.30;99.90
55173;DHT22;41061;52.822;6.860;2023-03-05T08:19:27;4.50;99.90
55173;DHT22;41061;52.822;6.860;2023-03-05T08:21:53;4.30;99.90
55173;DHT22;41061;52.822;6.860;2023-03-05T08:24:19;4.40;99.90
55173;DHT22;41061;52.822;6.860;2023-03-05T08:26:44;4.50;99.90
55173;DHT22;41061;52.822;6.860;2023-03-05T08:29:10;4.60;99.90
55173;DHT22;41061;52.822;6.860;2023-03-05T08:51:19;5.10;99.90
55173;DHT22;41061;52.822;6.860;2023-03-05T08:56:13;5.10;99.90
55173;DHT22;41061;52.822;6.860;2023-03-05T09:01:08;5.20;99.90
55173;DHT22;41061;52.822;6.860;2023-03-05T09:06:04;5.20;99.90
55173;DHT22;41061;52.822;6.860;2023-03-05T09:10:57;5.30;99.90
55173;DHT22;41061;52.822;6.860;2023-03-05T09:15:57;5.60;99.90
55173;DHT22;41061;52.822;6.860;2023-03-05T09:18:23;5.70;99.90
55173;DHT22;41061;52.822;6.860;2023-03-05T09:23:16;5.80;99.90
55173;DHT22;41061;52.822;6.860;2023-03-05T09:25:42;5.80;99.90
55173;DHT22;41061;52.822;6.860;2023-03-05T09:28:08;5.80;99.90
55173;DHT22;41061;52.822;6.860;2023-03-05T09:30:34;5.80;99.90
55173;DHT22;41061;52.822;6.860;2023-03-05T09:33:01;5.90;99.90
55173;DHT22;41061;52.822;6.860;2023-03-05T09:35:27;6.10;99.90
55173;DHT22;41061;52.822;6.860;2023-03-05T09:37:53;6.10;99.90
55173;DHT22;41061;52.822;6.860;2023-03-05T09:40:20;6.00;99.90
55173;DHT22;41061;52.822;6.860;2023-03-05T09:43:16;6.20;99.90
55173;DHT22;41061;52.822;6.860;2023-03-05T09:46:01;6.10;99.90
55173;DHT22;41061;52.822;6.860;2023-03-05T09:51:01;6.40;99.90
55173;DHT22;41061;52.822;6.860;2023-03-05T09:56:14;6.50;99.90
55173;DHT22;41061;52.822;6.860;2023-03-05T09:58:42;6.70;99.90
55173;DHT22;41061;52.822;6.860;2023-03-05T10:01:16;6.80;99.90
55173;DHT22;41061;52.822;6.860;2023-03-05T10:06:33;6.90;99.90
55173;DHT22;41061;52.822;6.860;2023-03-05T10:09:13;6.80;99.90
55173;DHT22;41061;52.822;6.860;2023-03-05T10:22:37;6.90;99.90
55173;DHT22;41061;52.822;6.860;2023-03-05T10:28:09;6.90;99.90
55173;DHT22;41061;52.822;6.860;2023-03-05T10:31:07;7.00;99.90
55173;DHT22;41061;52.822;6.860;2023-03-05T10:36:52;7.30;99.90
55173;DHT22;41061;52.822;6.860;2023-03-05T10:47:58;7.20;99.90
55173;DHT22;41061;52.822;6.860;2023-03-05T11:18:30;5.80;99.90
55173;DHT22;41061;52.822;6.860;2023-03-05T11:21:20;5.90;99.90
55173;DHT22;41061;52.822;6.860;2023-03-05T11:24:18;5.90;99.90
55173;DHT22;41061;52.822;6.860;2023-03-05T11:26:49;6.00;99.90
55173;DHT22;41061;52.822;6.860;2023-03-05T11:29:24;6.20;99.90
55173;DHT22;41061;52.822;6.860;2023-03-05T11:52:07;6.20;99.90
55173;DHT22;41061;52.822;6.860;2023-03-05T11:54:43;6.20;99.90
55173;DHT22;41061;52.822;6.860;2023-03-05T11:57:14;6.40;99.90
55173;DHT22;41061;52.822;6.860;2023-03-05T11:59:42;6.60;99.90
55173;DHT22;41061;52.822;6.860;2023-03-05T12:02:25;6.70;99.90
55173;DHT22;41061;52.822;6.860;2023-03-05T12:04:52;6.70;99.90
55173;DHT22;41061;52.822;6.860;2023-03-05T12:07:29;6.80;99.90
55173;DHT22;41061;52.822;6.860;2023-03-05T12:09:57;7.00;99.90
55173;DHT22;41061;52.822;6.860;2023-03-05T12:18:14;7.20;99.90
55173;DHT22;41061;52.822;6.860;2023-03-05T12:23:28;7.30;99.90
55173;DHT22;41061;52.822;6.860;2023-03-05T12:25:56;7.40;99.90
55173;DHT22;41061;52.822;6.860;2023-03-05T12:30:58;7.50;99.90
55173;DHT22;41061;52.822;6.860;2023-03-05T12:33:43;7.50;99.90
55173;DHT22;41061;52.822;6.860;2023-03-05T12:38:51;7.50;99.90
55173;DHT22;41061;52.822;6.860;2023-03-05T12:41:32;7.60;99.90
55173;DHT22;41061;52.822;6.860;2023-03-05T12:46:41;7.80;99.90
55173;DHT22;41061;52.822;6.860;2023-03-05T12:51:47;7.90;99.90
55173;DHT22;41061;52.822;6.860;2023-03-05T12:57:18;7.80;99.90
55173;DHT22;41061;52.822;6.860;2023-03-05T13:00:10;7.80;99.90
55173;DHT22;41061;52.822;6.860;2023-03-05T13:02:45;7.90;99.90
55173;DHT22;41061;52.822;6.860;2023-03-05T13:05:20;7.70;99.90
55173;DHT22;41061;52.822;6.860;2023-03-05T13:07:48;7.60;99.90
55173;DHT22;41061;52.822;6.860;2023-03-05T13:10:41;7.60;99.90
55173;DHT22;41061;52.822;6.860;2023-03-05T13:13:12;7.70;99.90
55173;DHT22;41061;52.822;6.860;2023-03-05T13:15:39;7.90;99.90
55173;DHT22;41061;52.822;6.860;2023-03-05T13:18:19;8.20;99.90
55173;DHT22;41061;52.822;6.860;2023-03-05T13:20:45;8.50;99.90
55173;DHT22;41061;52.822;6.860;2023-03-05T13:23:22;8.70;99.90
55173;DHT22;41061;52.822;6.860;2023-03-05T14:21:06;7.10;99.90
55173;DHT22;41061;52.822;6.860;2023-03-05T14:23:34;7.30;99.90
55173;DHT22;41061;52.822;6.860;2023-03-05T14:26:17;7.30;99.90
55173;DHT22;41061;52.822;6.860;2023-03-05T14:28:53;7.50;99.90
55173;DHT22;41061;52.822;6.860;2023-03-05T19:32:53;3.90;99.90
55173;DHT22;41061;52.822;6.860;2023-03-05T19:35:19;3.90;99.90
55173;DHT22;41061;52.822;6.860;2023-03-05T19:37:45;3.70;99.90
55173;DHT22;41061;52.822;6.860;2023-03-05T19:40:12;3.60;99.90
55173;DHT22;41061;52.822;6.860;2023-03-05T19:42:38;3.50;99.90
55173;DHT22;41061;52.822;6.860;2023-03-05T19:45:05;3.70;99.90
55173;DHT22;41061;52.822;6.860;2023-03-05T19:47:31;3.50;99.90
55173;DHT22;41061;52.822;6.860;2023-03-05T19:49:56;3.50;99.90
55173;DHT22;41061;52.822;6.860;2023-03-05T19:52:22;3.70;99.90
55173;DHT22;41061;52.822;6.860;2023-03-05T19:54:48;3.50;99.90
55173;DHT22;41061;52.822;6.860;2023-03-05T19:57:14;3.50;99.90
55173;DHT22;41061;52.822;6.860;2023-03-05T19:59:39;3.50;99.90
55173;DHT22;41061;52.822;6.860;2023-03-05T20:02:05;3.20;99.90
55173;DHT22;41061;52.822;6.860;2023-03-05T20:04:32;3.10;99.90
55173;DHT22;41061;52.822;6.860;2023-03-05T20:06:58;3.20;99.90
55173;DHT22;41061;52.822;6.860;2023-03-05T20:09:24;3.20;99.90
55173;DHT22;41061;52.822;6.860;2023-03-05T20:11:49;3.20;99.90
55173;DHT22;41061;52.822;6.860;2023-03-05T20:14:15;3.10;99.90
55173;DHT22;41061;52.822;6.860;2023-03-05T20:16:41;3.10;99.90
55173;DHT22;41061;52.822;6.860;2023-03-05T20:19:13;3.00;99.90
55173;DHT22;41061;52.822;6.860;2023-03-05T20:21:40;2.90;99.90
55173;DHT22;41061;52.822;6.860;2023-03-05T20:24:10;2.80;99.90
55173;DHT22;41061;52.822;6.860;2023-03-05T20:26:38;3.00;99.90
55173;DHT22;41061;52.822;6.860;2023-03-05T20:29:04;3.10;99.90
55173;DHT22;41061;52.822;6.860;2023-03-05T20:31:31;2.80;99.90
55173;DHT22;41061;52.822;6.860;2023-03-05T20:34:05;2.80;99.90
